Terminal Aerodrome Forecast
Issued by NWS Central Illinois

Home | Current Version | Previous Version | Text Only | Print | Product List | Glossary On
Versions: 1 2 3 4 5 6 7 8 9 10 11 12 13 14 15 16 17 18 19 20 21
000
FTUS43 KILX 222300
TAFSPI
TAF
KSPI 222331Z 2300/2324 21005KT P6SM SCT028
      TEMPO 2300/2301 BKN028
     FM230600 17005KT 5SM -RA BR VCTS SCT035CB BKN060
     FM231400 19005KT P6SM SCT035 BKN120
     FM232000 20007KT P6SM SCT040 BKN250=

USA.gov is the U.S. government's official web portal to all federal, state and local government web resources and services.